KZZV/ZZV METAR and TAF weather

Enter ICAO airport designator
Station Type Date Time Source
KZZV METAR 2022/11/27 07:53 UTC NOAA

KZZV 270753Z AUTO 13005KT 8SM -RA OVC075 06/03 A2981 RMK AO2 RAB00 PRESFR SLP097 P0003 T00610028


Station Type Date Time Source
KZZV Decoded METAR 2022/11/27 07:53 UTC NOAA

ZANESVILLE MUNICIPAL AIRPORT , OH, United States (KZZV) 39-57N 81-54W 268M
Nov 27, 2022 - 02:53 AM EST / 2022.11.27 0753 UTC
Wind: from the SE (130 degrees) at 6 MPH (5 KT):0
Visibility: 8 mile(s):0
Sky conditions: overcast
Weather: light rain
Precipitation last hour: 0.03 inches
Temperature: 43.0 F (6.1 C)
Dew Point: 37.0 F (2.8 C)
Relative Humidity: 79%
Pressure (altimeter): 29.81 in. Hg (1009 hPa)
Pressure tendency: falling rapidly
ob: KZZV 270753Z AUTO 13005KT 8SM -RA OVC075 06/03 A2981 RMK AO2 RAB00 PRESFR SLP097 P0003 T00610028
cycle: 8

Station Type Date Time Source
KZZV TAF 2022/11/27 07:59 UTC NOAA

TAF
AMD KZZV 270659Z 2707/2806 VRB03KT P6SM -RA OVC060
FM271200 13005KT 5SM SHRA BR OVC028
FM271500 16010KT 5SM SHRA BR OVC015 WS020/20040KT
FM271600 18014G22KT P6SM VCSH OVC020 WS020/20045KT
FM271800 21020G30KT P6SM VCSH BKN020
FM272000 23021G28KT P6SM VCSH OVC017
FM280300 27012G22KT 5SM BR OVC007

Example: see airport list